createdAt,value
2016-04-23T00:00:39.029Z,64.4
2016-04-23T00:01:39.032Z,64.4
2016-04-23T00:02:39.019Z,64.59
2016-04-23T00:03:39.037Z,64.31
2016-04-23T00:04:39.024Z,64.4
2016-04-23T00:05:39.058Z,64.69
2016-04-23T00:06:39.046Z,64.5
2016-04-23T00:07:39.032Z,64.69
2016-04-23T00:08:39.019Z,64.59
2016-04-23T00:09:39.037Z,64.5
2016-04-23T00:10:39.041Z,64.4
2016-04-23T00:11:39.027Z,64.31
2016-04-23T00:12:39.030Z,63.73
2016-04-23T00:13:39.017Z,64.4
2016-04-23T00:14:39.035Z,64.5
2016-04-23T00:15:39.038Z,64.88
2016-04-23T00:16:39.056Z,65.26
2016-04-23T00:17:39.043Z,65.07
2016-04-23T00:18:39.046Z,65.26
2016-04-23T00:19:39.049Z,64.88
2016-04-23T00:20:39.067Z,65.55
2016-04-23T00:21:39.070Z,64.88
2016-04-23T00:22:39.042Z,65.07
2016-04-23T00:23:39.044Z,65.26
2016-04-23T00:24:39.062Z,65.45
2016-04-23T00:25:39.050Z,65.55
2016-04-23T00:26:39.067Z,64.88
2016-04-23T00:27:39.055Z,64.98
2016-04-23T00:28:39.058Z,65.64
2016-04-23T00:29:39.060Z,65.74
2016-04-23T00:30:39.125Z,65.93
2016-04-23T00:31:39.081Z,66.13
2016-04-23T00:32:39.053Z,65.84
2016-04-23T00:33:39.071Z,66.22
2016-04-23T00:34:39.058Z,66.22
2016-04-23T00:35:39.108Z,65.84
2016-04-23T00:36:39.063Z,65.93
2016-04-23T00:37:39.097Z,65.74
2016-04-23T00:38:39.085Z,65.74
2016-04-23T00:39:39.087Z,66.13
2016-04-23T00:40:39.137Z,66.5
2016-04-23T00:41:39.077Z,66.5
2016-04-23T00:42:39.079Z,66.7
2016-04-23T00:43:39.082Z,66.38
2016-04-23T00:44:39.085Z,66.09
2016-04-23T00:45:39.088Z,66.31
2016-04-23T00:46:39.075Z,66.41
2016-04-23T00:47:39.093Z,66.19
2016-04-23T00:48:39.096Z,66.6
2016-04-23T00:49:39.083Z,66.56
2016-04-23T00:50:39.086Z,67.08
2016-04-23T00:51:39.103Z,67.08
2016-04-23T00:52:39.107Z,66.95
2016-04-23T00:53:39.094Z,67.05
2016-04-23T00:54:39.097Z,67.18
2016-04-23T00:55:39.114Z,66.5
2016-04-23T00:56:39.102Z,66.41
2016-04-23T00:57:39.105Z,66.09
2016-04-23T00:58:39.107Z,65.84
2016-04-23T00:59:39.110Z,65.61
2016-04-23T01:00:39.113Z,65.55
2016-04-23T01:01:39.100Z,66.03
2016-04-23T01:02:39.133Z,65.93
2016-04-23T01:03:39.120Z,65.84
2016-04-23T01:04:39.123Z,65.84
2016-04-23T01:05:39.189Z,65.55
2016-04-23T01:06:39.113Z,65.64
2016-04-23T01:07:39.099Z,65.36
2016-04-23T01:08:39.119Z,65.64
2016-04-23T01:09:39.121Z,66.03
2016-04-23T01:10:39.186Z,66.5
2016-04-23T01:11:39.126Z,66.6
2016-04-23T01:12:39.114Z,66.99
2016-04-23T01:13:39.132Z,67.65
2016-04-23T01:14:39.118Z,68.23
2016-04-23T01:15:39.199Z,68
2016-04-23T01:16:39.123Z,68
2016-04-23T01:17:39.127Z,67.81
2016-04-23T01:18:39.145Z,67.91
2016-04-23T01:19:39.132Z,68.19
2016-04-23T01:20:39.198Z,68.19
2016-04-23T01:21:39.138Z,68.29
2016-04-23T01:22:39.125Z,68.29
2016-04-23T01:23:39.142Z,68.1
2016-04-23T01:24:39.162Z,68.38
2016-04-23T01:25:39.148Z,68.29
2016-04-23T01:26:39.136Z,68.38
2016-04-23T01:27:39.138Z,68.48
2016-04-23T01:28:39.156Z,68
2016-04-23T01:29:39.144Z,67.81
2016-04-23T01:30:39.177Z,68.48
2016-04-23T01:31:39.164Z,68.57
2016-04-23T01:32:39.183Z,68.19
2016-04-23T01:33:39.155Z,68.1
2016-04-23T01:34:39.141Z,68.29
2016-04-23T01:35:39.160Z,68.57
2016-04-23T01:36:39.163Z,67.91
2016-04-23T01:37:39.149Z,67.91
2016-04-23T01:38:39.152Z,67.91
2016-04-23T01:39:39.155Z,68.1
2016-04-23T01:40:39.235Z,68.38
2016-04-23T01:41:39.160Z,68.38
2016-04-23T01:42:39.163Z,67.81
2016-04-23T01:43:39.181Z,67.91
2016-04-23T01:44:39.152Z,67.81
2016-04-23T01:45:39.202Z,67.91
2016-04-23T01:46:39.158Z,68.57
2016-04-23T01:47:39.176Z,68.38
2016-04-23T01:48:39.163Z,68.48
2016-04-23T01:49:39.182Z,68.57
2016-04-23T01:50:39.215Z,68.57
2016-04-23T01:51:39.171Z,68.29
2016-04-23T01:52:39.189Z,68.57
2016-04-23T01:53:39.162Z,68.38
2016-04-23T01:54:39.164Z,68.1
2016-04-23T01:55:39.244Z,68.19
2016-04-23T01:56:39.185Z,68.29
2016-04-23T01:57:39.172Z,68.38
2016-04-23T01:58:39.190Z,68.67
2016-04-23T01:59:39.177Z,68.86
2016-04-23T02:00:39.181Z,69.34
2016-04-23T02:01:39.183Z,69.62
2016-04-23T02:02:39.200Z,69.15
2016-04-23T02:03:39.188Z,69.72
2016-04-23T02:04:39.190Z,69.91
2016-04-23T02:05:39.194Z,69.34
2016-04-23T02:06:39.180Z,69.82
2016-04-23T02:07:39.199Z,69.82
2016-04-23T02:08:39.186Z,69.82
2016-04-23T02:09:39.189Z,69.62
2016-04-23T02:10:39.238Z,69.62
2016-04-23T02:11:39.193Z,69.53
2016-04-23T02:12:39.197Z,69.24
2016-04-23T02:13:39.199Z,69.43
2016-04-23T02:14:39.202Z,69.91
2016-04-23T02:15:39.220Z,69.62
2016-04-23T02:16:39.207Z,69.82
2016-04-23T02:17:39.210Z,69.62
2016-04-23T02:18:39.197Z,69.24
2016-04-23T02:19:39.200Z,69.62
2016-04-23T02:20:39.249Z,69.53
2016-04-23T02:21:39.206Z,69.62
2016-04-23T02:22:39.217Z,69.24
2016-04-23T02:23:39.220Z,69.24
2016-04-23T02:24:39.223Z,69.24
2016-04-23T02:25:39.288Z,69.15
2016-04-23T02:26:39.213Z,69.24
2016-04-23T02:27:39.215Z,69.24
2016-04-23T02:28:39.219Z,69.05
2016-04-23T02:29:39.221Z,68.76
2016-04-23T02:30:39.302Z,68.67
2016-04-23T02:31:39.211Z,68.67
2016-04-23T02:32:39.213Z,68.19
2016-04-23T02:33:39.232Z,68.38
2016-04-23T02:34:39.234Z,68.29
2016-04-23T02:35:39.252Z,67.81
2016-04-23T02:36:39.224Z,67.81
2016-04-23T02:37:39.227Z,68.1
2016-04-23T02:38:39.229Z,67.52
2016-04-23T02:39:39.232Z,67.33
2016-04-23T02:40:39.235Z,67.71
2016-04-23T02:41:39.221Z,67.05
2016-04-23T02:42:39.256Z,67.05
2016-04-23T02:43:39.243Z,66.47
2016-04-23T02:44:39.230Z,66.47
2016-04-23T02:45:39.264Z,66.95
2016-04-23T02:46:39.251Z,66.95
2016-04-23T02:47:39.238Z,67.14
2016-04-23T02:48:39.240Z,67.62
2016-04-23T02:49:39.243Z,67.62
2016-04-23T02:50:39.245Z,67.43
2016-04-23T02:51:39.249Z,67.62
2016-04-23T02:52:39.267Z,67.33
2016-04-23T02:53:39.253Z,67.62
2016-04-23T02:54:39.242Z,67.24
2016-04-23T02:55:39.244Z,67.52
2016-04-23T02:56:39.262Z,67.24
2016-04-23T02:57:39.249Z,67.33
2016-04-23T02:58:39.253Z,67.43
2016-04-23T02:59:39.270Z,67.43
2016-04-23T03:00:39.272Z,68.1
2016-04-23T03:01:39.260Z,68.19
2016-04-23T03:02:39.247Z,68.67
2016-04-23T03:03:39.266Z,69.21
2016-04-23T03:04:39.268Z,69.72
2016-04-23T03:05:39.286Z,69.68
2016-04-23T03:06:39.289Z,69.87
2016-04-23T03:07:39.260Z,69.59
2016-04-23T03:08:39.279Z,70.45
2016-04-23T03:09:39.266Z,70.16
2016-04-23T03:10:39.269Z,70.26
2016-04-23T03:11:39.271Z,70.45
2016-04-23T03:12:39.273Z,69.59
2016-04-23T03:13:39.277Z,69.78
2016-04-23T03:14:39.264Z,69.78
2016-04-23T03:15:39.281Z,69.97
2016-04-23T03:16:39.270Z,69.68
2016-04-23T03:17:39.287Z,69.4
2016-04-23T03:18:39.275Z,69.56
2016-04-23T03:19:39.278Z,69.87
2016-04-23T03:20:39.343Z,69.78
2016-04-23T03:21:39.283Z,69.78
2016-04-23T03:22:39.301Z,69.84
2016-04-23T03:23:39.288Z,69.4
2016-04-23T03:24:39.275Z,69.27
2016-04-23T03:25:39.293Z,69.59
2016-04-23T03:26:39.280Z,69.59
2016-04-23T03:27:39.284Z,69.21
2016-04-23T03:28:39.286Z,69.11
2016-04-23T03:29:39.305Z,68.92
2016-04-23T03:30:39.291Z,69.49
2016-04-23T03:31:39.278Z,69.78
2016-04-23T03:32:39.297Z,69.87
2016-04-23T03:33:39.283Z,69.11
2016-04-23T03:34:39.302Z,69.59
2016-04-23T03:35:39.321Z,69.4
2016-04-23T03:36:39.308Z,69.4
2016-04-23T03:37:39.294Z,69.49
2016-04-23T03:38:39.282Z,69.31
2016-04-23T03:39:39.285Z,69.78
2016-04-23T03:40:39.334Z,68.63
2016-04-23T03:41:39.289Z,69.21
2016-04-23T03:42:39.307Z,69.4
2016-04-23T03:43:39.311Z,69.49
2016-04-23T03:44:39.298Z,69.49
2016-04-23T03:45:39.379Z,69.49
2016-04-23T03:46:39.303Z,69.31
2016-04-23T03:47:39.306Z,69.31
2016-04-23T03:48:39.309Z,69.4
2016-04-23T03:49:39.295Z,69.59
2016-04-23T03:50:39.329Z,69.21
2016-04-23T03:51:39.301Z,68.35
2016-04-23T03:52:39.304Z,68.35
2016-04-23T03:53:39.322Z,68.06
2016-04-23T03:54:39.309Z,67.58
2016-04-23T03:55:39.299Z,67.11
2016-04-23T03:56:39.318Z,66.98
2016-04-23T03:57:39.337Z,66.15
2016-04-23T03:58:39.307Z,66.31
2016-04-23T03:59:39.311Z,65.93
2016-04-23T04:00:39.328Z,65.77
2016-04-23T04:01:39.332Z,65.77
2016-04-23T04:02:39.304Z,65.74
2016-04-23T04:03:39.306Z,65.93
2016-04-23T04:04:39.323Z,65.74
2016-04-23T04:05:39.358Z,65.74
2016-04-23T04:06:39.298Z,65.74
2016-04-23T04:07:39.332Z,65.83
2016-04-23T04:08:39.320Z,65.93
2016-04-23T04:09:39.322Z,66.12
2016-04-23T04:10:39.386Z,65.55
2016-04-23T04:11:39.312Z,65.74
2016-04-23T04:12:39.314Z,65.64
2016-04-23T04:13:39.317Z,65.83
2016-04-23T04:14:39.320Z,65.74
2016-04-23T04:15:39.385Z,65.93
2016-04-23T04:16:39.325Z,65.83
2016-04-23T04:17:39.328Z,66.22
2016-04-23T04:18:39.314Z,66.31
2016-04-23T04:19:39.333Z,66.6
2016-04-23T04:20:39.413Z,66.22
2016-04-23T04:21:39.338Z,66.12
2016-04-23T04:22:39.325Z,66.31
2016-04-23T04:23:39.172Z,66.6
2016-04-23T04:24:39.331Z,66.12
2016-04-23T04:25:39.177Z,66.41
2016-04-23T04:26:39.336Z,66.53
2016-04-23T04:27:39.167Z,66.22
2016-04-23T04:28:39.326Z,66.02
2016-04-23T04:29:39.329Z,66.31
2016-04-23T04:30:39.347Z,66.5
2016-04-23T04:31:39.335Z,66.12
2016-04-23T04:32:39.352Z,66.6
2016-04-23T04:33:39.340Z,66.53
2016-04-23T04:34:39.326Z,66.5
2016-04-23T04:35:39.407Z,66.41
2016-04-23T04:36:39.675Z,67.11
2016-04-23T04:37:39.334Z,67.01
2016-04-23T04:38:39.337Z,66.82
2016-04-23T04:39:39.356Z,67.01
2016-04-23T04:40:39.343Z,66.25
2016-04-23T04:41:39.548Z,66.31
2016-04-23T04:42:39.348Z,66.35
2016-04-23T04:43:39.335Z,66.35
2016-04-23T04:44:39.338Z,65.96
2016-04-23T04:45:39.341Z,66.72
2016-04-23T04:46:39.344Z,66.53
2016-04-23T04:47:38.612Z,66.25
2016-04-23T04:48:39.333Z,65.83
2016-04-23T04:49:39.352Z,65.67
2016-04-23T04:50:39.338Z,65.83
2016-04-23T04:51:39.341Z,66.63
2016-04-23T04:52:39.343Z,66.44
2016-04-23T04:53:39.362Z,67.11
2016-04-23T04:54:39.349Z,66.41
2016-04-23T04:55:39.352Z,66.31
2016-04-23T04:56:39.339Z,66.88
2016-04-23T04:57:39.357Z,66.98
2016-04-23T04:58:39.344Z,66.98
2016-04-23T04:59:39.346Z,66.98
2016-04-23T05:00:39.396Z,66.98
2016-04-23T05:01:39.368Z,67.01
2016-04-23T05:02:39.355Z,67.3
2016-04-23T05:03:39.358Z,67.87
2016-04-23T05:04:39.345Z,67.58
2016-04-23T05:05:39.348Z,67.46
2016-04-23T05:06:39.365Z,67.3
2016-04-23T05:07:39.354Z,67.21
2016-04-23T05:08:39.355Z,67.3
2016-04-23T05:09:39.201Z,67.21
2016-04-23T05:10:39.408Z,67.4
2016-04-23T05:11:39.379Z,67.4
2016-04-23T05:12:39.350Z,67.68
2016-04-23T05:13:39.369Z,67.4
2016-04-23T05:14:39.372Z,67.4
2016-04-23T05:15:39.390Z,67.4
2016-04-23T05:16:39.361Z,67.4
2016-04-23T05:17:39.380Z,67.68
2016-04-23T05:18:39.367Z,67.49
2016-04-23T05:19:39.370Z,67.68
2016-04-23T05:20:39.372Z,68.35
2016-04-23T05:21:39.359Z,67.87
2016-04-23T05:22:39.377Z,68.06
2016-04-23T05:23:39.364Z,67.4
2016-04-23T05:24:39.366Z,67.4
2016-04-23T05:25:39.432Z,67.21
2016-04-23T05:26:39.372Z,67.4
2016-04-23T05:27:39.375Z,67.68
2016-04-23T05:28:39.394Z,66.82
2016-04-23T05:29:39.365Z,67.21
2016-04-23T05:30:39.243Z,67.97
2016-04-23T05:31:39.370Z,68.73
2016-04-23T05:32:39.388Z,68.92
2016-04-23T05:33:39.376Z,68.76
2016-04-23T05:34:39.379Z,68.57
2016-04-23T05:35:39.381Z,68
2016-04-23T05:36:39.384Z,67.68
2016-04-23T05:37:39.387Z,68.35
2016-04-23T05:38:39.404Z,69.68
2016-04-23T05:39:39.376Z,69.49
2016-04-23T05:40:39.410Z,69.31
2016-04-23T05:41:39.398Z,67.97
2016-04-23T05:42:39.400Z,68.26
2016-04-23T05:43:39.418Z,67.87
2016-04-23T05:44:39.390Z,67.4
2016-04-23T05:45:39.392Z,67.4
2016-04-23T05:46:39.395Z,67.49
2016-04-23T05:47:39.397Z,67.87
2016-04-23T05:48:39.401Z,66.28
2016-04-23T05:49:39.403Z,66.38
2016-04-23T05:50:39.453Z,66.38
2016-04-23T05:51:39.409Z,66.19
2016-04-23T05:52:39.396Z,65.9
2016-04-23T05:53:39.430Z,65.8
2016-04-23T05:54:39.416Z,65.71
2016-04-23T05:55:39.404Z,65.9
2016-04-23T05:56:39.407Z,66.38
2016-04-23T05:57:39.409Z,66.92
2016-04-23T05:58:39.412Z,66.85
2016-04-23T05:59:39.399Z,67.24
2016-04-23T06:00:39.449Z,67.52
2016-04-23T06:01:39.420Z,67.05
2016-04-23T06:02:39.423Z,67.43
2016-04-23T06:03:39.409Z,67.91
2016-04-23T06:04:39.413Z,67.91
2016-04-23T06:05:39.431Z,67.14
2016-04-23T06:06:39.418Z,67.05
2016-04-23T06:07:39.421Z,66.95
2016-04-23T06:08:39.439Z,67.71
2016-04-23T06:09:39.426Z,67.43
2016-04-23T06:10:39.428Z,66.85
2016-04-23T06:11:39.447Z,67.05
2016-04-23T06:12:39.434Z,67.62
2016-04-23T06:13:39.420Z,67.14
2016-04-23T06:14:39.439Z,68
2016-04-23T06:15:39.473Z,67.4
2016-04-23T06:16:39.445Z,68.44
2016-04-23T06:17:39.431Z,68.92
2016-04-23T06:18:39.419Z,68.63
2016-04-23T06:19:39.452Z,68.73
2016-04-23T06:20:39.503Z,68.63
2016-04-23T06:21:39.443Z,68.96
2016-04-23T06:22:39.445Z,68.86
2016-04-23T06:23:39.448Z,69.68
2016-04-23T06:24:39.435Z,68.06
2016-04-23T06:25:39.453Z,67.87
2016-04-23T06:26:39.440Z,69.02
2016-04-23T06:27:39.458Z,68.16
2016-04-23T06:28:39.461Z,68.92
2016-04-23T06:29:39.433Z,69.11
2016-04-23T06:30:39.451Z,68.82
2016-04-23T06:31:38.704Z,69.31
2016-04-23T06:32:39.441Z,69.49
2016-04-23T06:33:39.474Z,69.59
2016-04-23T06:34:39.446Z,69.87
2016-04-23T06:35:39.448Z,69.49
2016-04-23T06:36:39.468Z,69.49
2016-04-23T06:37:39.455Z,69.46
2016-04-23T06:38:39.457Z,69.84
2016-04-23T06:39:39.460Z,69.31
2016-04-23T06:40:39.478Z,69.56
2016-04-23T06:41:39.465Z,68.88
2016-04-23T06:42:39.483Z,70.51
2016-04-23T06:43:39.470Z,70.51
2016-04-23T06:44:39.457Z,69.93
2016-04-23T06:45:39.476Z,70.42
2016-04-23T06:46:39.462Z,70.7
2016-04-23T06:47:39.465Z,70.98
2016-04-23T06:48:39.453Z,70.51
2016-04-23T06:49:39.470Z,71.46
2016-04-23T06:50:39.458Z,70.03
2016-04-23T06:51:39.475Z,70.7
2016-04-23T06:52:39.464Z,70.51
2016-04-23T06:53:39.482Z,70.89
2016-04-23T06:54:39.484Z,70.51
2016-04-23T06:55:39.519Z,70.98
2016-04-23T06:56:39.474Z,70.61
2016-04-23T06:57:39.477Z,70.32
2016-04-23T06:58:39.495Z,71.37
2016-04-23T06:59:39.466Z,70.7
2016-04-23T07:00:39.485Z,71.08
2016-04-23T07:01:39.488Z,71.46
2016-04-23T07:02:39.475Z,70.42
2016-04-23T07:03:39.477Z,71.27
2016-04-23T07:04:39.480Z,72.42
2016-04-23T07:05:39.326Z,71.94
2016-04-23T07:06:39.501Z,72.13
2016-04-23T07:07:39.487Z,73.56
2016-04-23T07:08:39.476Z,72.23
2016-04-23T07:09:39.494Z,71.18
2016-04-23T07:10:39.574Z,70.98
2016-04-23T07:11:39.484Z,71.08
2016-04-23T07:12:39.470Z,70.64
2016-04-23T07:13:39.489Z,70.73
2016-04-23T07:14:39.507Z,69.68
2016-04-23T07:15:39.478Z,68.44
2016-04-23T07:16:39.497Z,67.05
2016-04-23T07:17:39.484Z,65.93
2016-04-23T07:18:39.487Z,64.43
2016-04-23T07:19:39.489Z,62.65
2016-04-23T07:20:39.539Z,59.91
2016-04-23T07:21:39.494Z,58.18
2016-04-23T07:22:39.497Z,57.26
2016-04-23T07:23:39.500Z,55.08
2016-04-23T07:24:39.503Z,55.65
2016-04-23T07:25:39.505Z,55.36
2016-04-23T07:26:39.524Z,55.08
2016-04-23T07:27:39.510Z,55.56
2016-04-23T07:28:39.529Z,56.42
2016-04-23T07:29:39.516Z,57.16
2016-04-23T07:30:39.550Z,57.26
2016-04-23T07:31:39.521Z,57.26
2016-04-23T07:32:39.524Z,57.64
2016-04-23T07:33:39.574Z,58.18
2016-04-23T07:34:39.576Z,59.72
2016-04-23T07:35:39.548Z,59.59
2016-04-23T07:36:39.551Z,60.06
2016-04-23T07:37:39.554Z,60.35
2016-04-23T07:38:39.571Z,60.26
2016-04-23T07:39:39.559Z,60.64
2016-04-23T07:40:39.623Z,61.31
2016-04-23T07:41:39.596Z,61.57
2016-04-23T07:42:38.893Z,62.33
2016-04-23T07:43:39.690Z,62.52
2016-04-23T07:44:39.737Z,62.33
2016-04-23T07:45:39.876Z,62.78
2016-04-23T07:46:39.808Z,63.83
2016-04-23T07:47:39.842Z,64.4
2016-04-23T07:48:39.892Z,64.85
2016-04-23T07:49:39.880Z,65.42
2016-04-23T07:50:39.930Z,65.9
2016-04-23T07:51:39.895Z,65.33
2016-04-23T07:52:39.903Z,65.61
2016-04-23T07:53:39.943Z,65.14
2016-04-23T07:54:39.935Z,65.33
2016-04-23T07:55:39.943Z,65.14
2016-04-23T07:56:39.965Z,64.75
2016-04-23T07:57:39.970Z,64.5
2016-04-23T07:58:39.959Z,63.83
2016-04-23T07:59:39.963Z,64.31
2016-04-23T08:00:40.078Z,63.83
2016-04-23T08:01:39.956Z,63.83
2016-04-23T08:02:39.974Z,63.73
2016-04-23T08:03:39.979Z,63.45
2016-04-23T08:04:39.982Z,63.93
2016-04-23T08:05:39.986Z,63.73
2016-04-23T08:06:39.973Z,64.4
2016-04-23T08:07:39.977Z,64.5
2016-04-23T08:08:39.995Z,64.4
2016-04-23T08:09:39.982Z,63.93
2016-04-23T08:10:40.032Z,63.35
2016-04-23T08:11:40.003Z,63.16
2016-04-23T08:12:39.991Z,63.26
2016-04-23T08:13:40.009Z,63.45
2016-04-23T08:14:40.012Z,63.35
2016-04-23T08:15:40.014Z,63.83
2016-04-23T08:16:40.017Z,63.64
2016-04-23T08:17:40.004Z,63.73
2016-04-23T08:18:40.008Z,63.07
2016-04-23T08:19:40.010Z,63.45
2016-04-23T08:20:40.074Z,63.26
2016-04-23T08:21:40.015Z,63.35
2016-04-23T08:22:40.002Z,63.16
2016-04-23T08:23:40.021Z,62.9
2016-04-23T08:24:40.023Z,63.19
2016-04-23T08:25:40.027Z,63.1
2016-04-23T08:26:40.013Z,63.1
2016-04-23T08:27:40.047Z,63.39
2016-04-23T08:28:40.174Z,62.9
2016-04-23T08:29:40.041Z,62.71
2016-04-23T08:30:40.043Z,63.1
2016-04-23T08:31:40.047Z,63.19
2016-04-23T08:32:40.049Z,63.1
2016-04-23T08:33:40.052Z,63.19
2016-04-23T08:34:40.054Z,63.73
2016-04-23T08:35:40.057Z,64.25
2016-04-23T08:36:40.045Z,63.83
2016-04-23T08:37:40.109Z,64.22
2016-04-23T08:38:40.066Z,64.12
2016-04-23T08:39:40.068Z,64.5
2016-04-23T08:40:40.086Z,64.98
2016-04-23T08:41:40.074Z,65.64
2016-04-23T08:42:40.092Z,66.22
2016-04-23T08:43:40.078Z,66.89
2016-04-23T08:44:39.926Z,67.62
2016-04-23T08:45:40.163Z,67.43
2016-04-23T08:46:40.086Z,68.19
2016-04-23T08:47:40.089Z,68.86
2016-04-23T08:48:40.078Z,68.96
2016-04-23T08:49:40.095Z,69.97
2016-04-23T08:50:40.144Z,69.78
2016-04-23T08:51:40.086Z,69.87
2016-04-23T08:52:40.103Z,70.36
2016-04-23T08:53:40.746Z,70.29
2016-04-23T08:54:40.108Z,70.26
2016-04-23T08:55:40.096Z,70.16
2016-04-23T08:56:40.099Z,70.45
2016-04-23T08:57:40.102Z,70.92
2016-04-23T08:58:40.104Z,70.45
2016-04-23T08:59:40.107Z,70.45
2016-04-23T09:00:40.109Z,71.5
2016-04-23T09:01:40.112Z,71.78
2016-04-23T09:02:40.115Z,72.42
2016-04-23T09:03:40.117Z,72.8
2016-04-23T09:04:40.089Z,72.99
2016-04-23T09:05:40.123Z,72.51
2016-04-23T09:06:40.126Z,73.75
2016-04-23T09:07:40.128Z,73.37
2016-04-23T09:08:40.334Z,73.66
2016-04-23T09:09:40.102Z,73.08
2016-04-23T09:10:40.120Z,72.61
2016-04-23T09:11:40.108Z,72.71
2016-04-23T09:12:40.111Z,72.51
2016-04-23T09:13:40.113Z,72.32
2016-04-23T09:14:40.116Z,72.51
2016-04-23T09:15:40.119Z,73.18
2016-04-23T09:16:40.121Z,72.89
2016-04-23T09:17:40.124Z,74.13
2016-04-23T09:18:40.111Z,74.19
2016-04-23T09:19:40.114Z,74.23
2016-04-23T09:20:40.116Z,74.19
2016-04-23T09:21:40.181Z,74.67
2016-04-23T09:22:40.199Z,73.94
2016-04-23T09:23:40.108Z,74.38
2016-04-23T09:24:40.096Z,74.1
2016-04-23T09:25:40.177Z,74.01
2016-04-23T09:26:40.133Z,74.19
2016-04-23T09:27:40.119Z,74.01
2016-04-23T09:28:40.121Z,74.01
2016-04-23T09:29:40.297Z,73.72
2016-04-23T09:30:40.112Z,74.01
2016-04-23T09:31:40.115Z,75.53
2016-04-23T09:32:40.149Z,75.43
2016-04-23T09:33:40.010Z,76.01
2016-04-23T09:34:43.154Z,76.1
2016-04-23T09:35:40.141Z,77.06
2016-04-23T09:36:40.128Z,76.1
2016-04-23T09:37:40.131Z,76.48
2016-04-23T09:38:40.133Z,77.53
2016-04-23T09:39:40.104Z,78.3
2016-04-23T09:40:40.170Z,77.34
2016-04-23T09:41:40.142Z,77.15
2016-04-23T09:42:40.066Z,77.49
2016-04-23T09:43:40.131Z,78.16
2016-04-23T09:44:40.118Z,79.3
2016-04-23T09:45:40.136Z,79.59
2016-04-23T09:46:40.139Z,79.49
2016-04-23T09:47:40.142Z,79.88
2016-04-23T09:48:39.958Z,80.64
2016-04-23T09:49:40.148Z,78.77
2016-04-23T09:50:40.134Z,78.01
2016-04-23T09:51:40.122Z,77.53
2016-04-23T09:52:40.124Z,77.34
2016-04-23T09:53:40.127Z,75.34
2016-04-23T09:54:40.114Z,76.39
2016-04-23T09:55:40.116Z,76.67
2016-04-23T09:56:40.135Z,76.2
2016-04-23T09:57:40.122Z,77.4
2016-04-23T09:58:40.124Z,76.44
2016-04-23T09:59:40.127Z,77.53
2016-04-23T10:00:40.146Z,77.01
2016-04-23T10:01:40.133Z,76.64
2016-04-23T10:02:40.121Z,75.96
2016-04-23T10:03:40.123Z,76.16
2016-04-23T10:04:40.156Z,76.54
2016-04-23T10:05:40.284Z,78.12
2016-04-23T10:06:40.802Z,77.64
2016-04-23T10:07:40.134Z,77.07
2016-04-23T10:08:40.573Z,77.17
2016-04-23T10:09:40.123Z,77.26
2016-04-23T10:10:40.126Z,77.36
2016-04-23T10:11:40.565Z,77.55
2016-04-23T10:12:40.131Z,77.03
2016-04-23T10:13:40.134Z,77.7
2016-04-23T10:14:40.120Z,77.03
2016-04-23T10:15:40.826Z,77.03
2016-04-23T10:16:40.126Z,77.32
2016-04-23T10:17:39.956Z,77.61
2016-04-23T10:18:40.131Z,77.42
2016-04-23T10:19:40.150Z,77.32
2016-04-23T10:20:40.169Z,77.32
2016-04-23T10:21:40.124Z,77.89
2016-04-23T10:22:40.110Z,78.27
2016-04-23T10:23:40.117Z,77.51
2016-04-23T10:24:40.104Z,77.8
2016-04-23T10:25:40.153Z,77.51
2016-04-23T10:26:40.125Z,77.89
2016-04-23T10:27:40.111Z,77.22
2016-04-23T10:28:40.114Z,75.89
2016-04-23T10:29:40.117Z,75.99
2016-04-23T10:30:40.104Z,76.18
2016-04-23T10:31:40.122Z,77.03
2016-04-23T10:32:40.125Z,76.75
2016-04-23T10:33:40.113Z,77.22
2016-04-23T10:34:41.490Z,76.75
2016-04-23T10:35:40.133Z,77.8
2016-04-23T10:36:40.104Z,77.61
2016-04-23T10:37:40.107Z,77.13
2016-04-23T10:38:40.110Z,77.13
2016-04-23T10:39:40.112Z,77.8
2016-04-23T10:40:40.193Z,77.8
2016-04-23T10:41:40.103Z,76.37
2016-04-23T10:42:40.106Z,77.61
2016-04-23T10:43:40.092Z,77.8
2016-04-23T10:44:40.095Z,77.32
2016-04-23T10:45:40.192Z,77.7
2016-04-23T10:46:40.148Z,78.37
2016-04-23T10:47:40.119Z,78.23
2016-04-23T10:48:40.106Z,79.6
2016-04-23T10:49:40.125Z,79.13
2016-04-23T10:50:40.159Z,79.7
2016-04-23T10:51:40.567Z,79.13
2016-04-23T10:52:40.179Z,78.85
2016-04-23T10:53:40.197Z,79.6
2016-04-23T10:54:40.123Z,78.85
2016-04-23T10:55:40.266Z,79.6
2016-04-23T10:56:40.111Z,79.03
2016-04-23T10:57:40.442Z,79.6
2016-04-23T10:58:40.227Z,79.41
2016-04-23T10:59:40.198Z,78.56
2016-04-23T11:00:40.232Z,79.22
2016-04-23T11:01:40.407Z,78.94
2016-04-23T11:02:40.784Z,79.22
2016-04-23T11:03:40.896Z,79.13
2016-04-23T11:04:41.961Z,79.22
2016-04-23T11:05:40.746Z,79.41
2016-04-23T11:06:40.827Z,79.41
2016-04-23T11:07:40.860Z,79.41
2016-04-23T11:08:40.801Z,79.41
2016-04-23T11:09:40.615Z,79.75
2016-04-23T11:10:40.837Z,80.65
2016-04-23T11:11:40.621Z,80.36
2016-04-23T11:12:40.905Z,80.13
2016-04-23T11:13:40.830Z,79.99
2016-04-23T11:14:40.644Z,80.08
2016-04-23T11:15:40.647Z,80.61
2016-04-23T11:16:40.712Z,82.61
2016-04-23T11:17:40.746Z,82.23
2016-04-23T11:18:40.671Z,82.42
2016-04-23T11:19:40.502Z,82.7
2016-04-23T11:20:40.379Z,83.18
2016-04-23T11:21:40.336Z,83.85
2016-04-23T11:22:40.353Z,83.09
2016-04-23T11:23:40.216Z,83.47
2016-04-23T11:24:40.797Z,84.42
2016-04-23T11:25:40.830Z,83.94
2016-04-23T11:26:40.770Z,83.85
2016-04-23T11:27:40.789Z,85.47
2016-04-23T11:28:40.948Z,85.18
2016-04-23T11:29:40.669Z,85.75
2016-04-23T11:30:40.625Z,86.32
2016-04-23T11:31:40.722Z,85.28
2016-04-23T11:32:40.583Z,85.37
2016-04-23T11:33:40.618Z,85.37
2016-04-23T11:34:40.902Z,86.51
2016-04-23T11:35:40.858Z,84.61
2016-04-23T11:36:40.079Z,84.42
2016-04-23T11:37:40.347Z,84.7
2016-04-23T11:38:40.053Z,85.9
2016-04-23T11:39:40.055Z,86.47
2016-04-23T11:40:40.074Z,85.61
2016-04-23T11:41:40.154Z,85.14
2016-04-23T11:42:40.032Z,85.42
2016-04-23T11:43:40.098Z,85.52
2016-04-23T11:44:40.116Z,85.61
2016-04-23T11:45:40.088Z,86.28
2016-04-23T11:46:40.137Z,87.13
2016-04-23T11:47:40.030Z,87.9
2016-04-23T11:48:40.080Z,86.94
2016-04-23T11:49:40.145Z,87.04
2016-04-23T11:50:40.195Z,87.9
2016-04-23T11:51:40.088Z,87.8
2016-04-23T11:52:40.060Z,86.47
2016-04-23T11:53:40.156Z,85.24
2016-04-23T11:54:40.095Z,85.8
2016-04-23T11:55:40.098Z,86.09
2016-04-23T11:56:40.070Z,85.99
2016-04-23T11:57:40.058Z,86.18
2016-04-23T11:58:40.028Z,86.38
2016-04-23T11:59:40.031Z,86.38
2016-04-23T12:00:40.050Z,87.04
2016-04-23T12:01:40.006Z,86.09
2016-04-23T12:02:40.039Z,85.14
2016-04-23T12:03:40.074Z,86.47
2016-04-23T12:04:40.107Z,85.14
2016-04-23T12:05:40.016Z,86.18
2016-04-23T12:06:40.050Z,86.18
2016-04-23T12:07:40.022Z,86.85
2016-04-23T12:08:40.024Z,86.57
2016-04-23T12:09:40.027Z,86.47
2016-04-23T12:10:41.343Z,85.99
2016-04-23T12:11:41.157Z,85.52
2016-04-23T12:12:41.019Z,85.42
2016-04-23T12:13:40.865Z,84.76
2016-04-23T12:14:40.431Z,84.28
2016-04-23T12:15:41.027Z,85.14
2016-04-23T12:16:40.327Z,85.14
2016-04-23T12:17:41.032Z,85.61
2016-04-23T12:18:40.848Z,85.04
2016-04-23T12:19:40.100Z,84.09
2016-04-23T12:20:41.213Z,84.95
2016-04-23T12:21:40.450Z,84.85
2016-04-23T12:22:40.546Z,85.14
2016-04-23T12:23:40.283Z,85.04
2016-04-23T12:24:40.317Z,85.42
2016-04-23T12:25:40.039Z,85.99
2016-04-23T12:26:40.073Z,86.38
2016-04-23T12:27:40.029Z,87.71
2016-04-23T12:28:40.016Z,86.99
2016-04-23T12:29:39.986Z,85.95
2016-04-23T12:30:39.989Z,87.85
2016-04-23T12:31:39.992Z,86.43
2016-04-23T12:32:39.964Z,86.24
2016-04-23T12:33:39.983Z,86.8
2016-04-23T12:34:39.813Z,87.85
2016-04-23T12:35:40.456Z,87.85
2016-04-23T12:36:39.959Z,88.71
2016-04-23T12:37:40.008Z,87.38
2016-04-23T12:38:39.964Z,86.24
2016-04-23T12:39:39.982Z,85.66
2016-04-23T12:40:39.954Z,85.95
2016-04-23T12:41:39.988Z,86.33
2016-04-23T12:42:39.975Z,86.8
2016-04-23T12:43:40.009Z,86.9
2016-04-23T12:44:39.996Z,87.28
2016-04-23T12:45:39.952Z,86.9
2016-04-23T12:46:40.096Z,87.76
2016-04-23T12:47:39.957Z,87.57
2016-04-23T12:48:39.976Z,87.85
2016-04-23T12:49:39.822Z,87.47
2016-04-23T12:50:40.012Z,87.57
2016-04-23T12:51:40.140Z,87.47
2016-04-23T12:52:39.971Z,86.9
2016-04-23T12:53:39.911Z,87.66
2016-04-23T12:54:39.929Z,87.28
2016-04-23T12:55:39.948Z,87.47
2016-04-23T12:56:39.919Z,87.85